Osmond, NE

8:36 PM CDT on September 20, 2014 (GMT -0500)
KNENELIG1 | Change Station
CLOSE
Current Station
Personal Weather Station
Location: Neligh, NE
Elevation: 1750 ft
Nearby Weather Stations

Elev 1750 ft 42.13 °N, 98.03 °W | Updated 1 minute ago

Clear
Clear
72.7 °F
Feels Like 77 °F
N
2.0
Wind Variable Wind from NW
Gusts 5.0 mph

Today
High -- | Low -- °F
--% Chance of Precip.
Yesterday
High -- | Low -- °F
Precip. -- in
7:16 AM 7:31 PM
Waning Crescent, 9% visible
Pressure 29.96 in
Visibility 10.0 miles
Clouds Clear
Heat Index 77 °F
Dew Point 48 °F
Humidity 41%
Rainfall -999.00 in
Snow Depth Not available.
UV 0 out of 12
Pollen 6.50 out of 12
Air Quality Not available.
Flu Activity Not available.
METAR KOFK 210056Z AUTO 32013G19KT 10SM CLR 23/10 A2999 RMK AO2 SLP145 T02330100

More Conditions Fewer Conditions

Pressure 29.96 in
Visibility 10.0 miles
Clouds Clear
Heat Index 77 °F
Dew Point 48 °F
Humidity 41%
Rainfall -999.00 in
Snow Depth Not available.
UV 0 out of 12
Pollen 6.50 out of 12
Air Quality Not available.
Flu Activity Not available.
METAR KOFK 210056Z AUTO 32013G19KT 10SM CLR 23/10 A2999 RMK AO2 SLP145 T02330100

More Conditions Fewer Conditions

10-Day Weather Forecast

Almanac

Astronomy

Sep. 20, 2014 Rise Set
Actual Time 7:16 AM CDT 7:31 PM CDT
Civil Twilight 6:48 AM CDT 7:59 PM CDT
Nautical Twilight 6:15 AM CDT 8:32 PM CDT
Astronomical Twilight 5:41 AM CDT 9:06 PM CDT
Moon 3:53 AM CDT (9/20) 5:38 PM CDT (9/20)
Length of Visible Light 13h 11m
Length of Day
12h 15m
Tomorrow will be 2m 49s shorter.
Waning Crescent, 9% of the Moon is Illuminated
Today
Waning Crescent
Sep 24
New
Oct 1
First Quarter
Oct 8
Full
Oct 15
Last Quarter

Today's Extremes

State Highs State Lows

Community

WunderPhotos

Upload Photos

1,755,032 photos uploaded!

WunderBlogs® & News

Nearby

Snow Depth

Station Depth Elevation
No new snow has been reported.

Earthquake Activity

City Distance Mag. Time & Date
No recent earthquake activity has been reported nearby.
Minimum magnitude displayed is 2.5.

Coastal Water Temperatures

Place Temperature
No Stations Reporting

Nearby Weather Stations